Time;durP1;ratioP1;P1;durP2;ratioP2;P2;SDS_P1;SDS_P2;PMS_P1;PMS_P2;Temp;Humidity;BMP_temperature;BMP_pressure;BME280_temperature;BME280_humidity;BME280_pressure;Samples;Min_cycle;Max_cycle;Signal;HPM_P1;HPM_P2
2021/04/19 00:01:10;;;;;;;23.67;11.73;;;;;;;2.99;78.63;96399.69;5071925;28;19956;-66
2021/04/19 00:03:36;;;;;;;22.17;12.23;;;;;;;2.93;78.30;96400.44;5071439;28;20060;-66
2021/04/19 00:06:02;;;;;;;20.73;10.98;;;;;;;2.91;78.73;96387.63;5071398;28;20045;-66
2021/04/19 00:08:27;;;;;;;24.67;11.68;;;;;;;2.97;78.72;96393.88;5071135;28;20048;-65
2021/04/19 00:10:53;;;;;;;21.80;10.90;;;;;;;2.92;79.15;96388.44;5069436;28;20037;-65
2021/04/19 00:13:19;;;;;;;23.52;10.73;;;;;;;2.79;79.89;96384.66;5070937;28;20110;-67
2021/04/19 00:15:46;;;;;;;21.95;11.35;;;;;;;2.85;79.41;96378.78;5071128;28;20064;-67
2021/04/19 00:18:14;;;;;;;24.95;12.15;;;;;;;2.87;79.19;96363.00;5069823;28;20057;-66
2021/04/19 00:20:40;;;;;;;26.70;13.05;;;;;;;2.97;78.73;96371.31;5070951;28;20041;-66
2021/04/19 00:23:05;;;;;;;21.75;10.93;;;;;;;2.95;79.42;96369.84;5071148;28;20082;-67
2021/04/19 00:25:34;;;;;;;23.73;11.85;;;;;;;2.88;79.76;96372.38;5071351;28;20170;-66
2021/04/19 00:28:01;;;;;;;22.95;11.63;;;;;;;2.86;79.51;96358.78;5070932;28;20068;-65
2021/04/19 00:30:27;;;;;;;23.60;12.13;;;;;;;3.00;79.38;96363.13;5070541;28;20127;-65
2021/04/19 00:32:54;;;;;;;20.50;10.82;;;;;;;3.02;79.12;96371.56;5069370;28;20041;-66
2021/04/19 00:35:23;;;;;;;21.40;10.80;;;;;;;2.85;79.22;96359.75;5070897;28;20044;-66
2021/04/19 00:37:49;;;;;;;22.92;11.57;;;;;;;2.94;78.90;96366.47;5070942;28;20592;-66
2021/04/19 00:40:18;;;;;;;22.35;11.15;;;;;;;2.96;78.63;96366.25;5070815;28;20499;-66
2021/04/19 00:42:46;;;;;;;23.45;11.80;;;;;;;2.92;78.85;96362.44;5070510;28;20071;-65
2021/04/19 00:45:12;;;;;;;22.98;11.80;;;;;;;2.96;78.21;96371.47;5070793;28;20044;-66
2021/04/19 00:47:38;;;;;;;25.15;11.70;;;;;;;2.95;78.49;96357.66;5070484;28;20074;-66
2021/04/19 00:50:08;;;;;;;22.55;11.45;;;;;;;2.97;78.13;96358.31;5070474;28;20044;-66
2021/04/19 00:52:34;;;;;;;22.55;11.63;;;;;;;3.05;77.65;96355.56;5070389;28;20464;-66
2021/04/19 00:55:00;;;;;;;22.55;11.15;;;;;;;2.98;78.06;96346.91;5053890;28;20083;-66
2021/04/19 00:57:27;;;;;;;25.13;11.50;;;;;;;3.09;77.67;96356.03;5074292;28;20072;-66
2021/04/19 00:59:53;;;;;;;26.00;12.47;;;;;;;3.04;78.35;96353.16;5071469;28;20048;-66
2021/04/19 01:02:18;;;;;;;22.73;11.55;;;;;;;2.95;78.70;96351.66;5071209;28;20181;-66
2021/04/19 01:04:44;;;;;;;25.42;13.27;;;;;;;2.77;79.05;96345.09;5071078;28;20041;-66
2021/04/19 01:07:11;;;;;;;23.25;12.77;;;;;;;2.83;78.77;96344.34;5070345;28;20044;-65
2021/04/19 01:09:37;;;;;;;22.02;11.68;;;;;;;2.68;79.63;96346.19;5070492;28;20182;-65
2021/04/19 01:12:03;;;;;;;21.20;11.27;;;;;;;2.80;79.37;96344.75;5071044;28;20511;-66
2021/04/19 01:14:31;;;;;;;20.13;10.50;;;;;;;2.81;78.98;96345.53;5071166;28;20052;-66
2021/04/19 01:16:57;;;;;;;24.25;11.43;;;;;;;2.74;79.04;96345.44;5070846;28;20075;-67
2021/04/19 01:19:22;;;;;;;21.33;11.60;;;;;;;2.62;79.94;96352.91;5070486;28;20064;-67
2021/04/19 01:21:49;;;;;;;23.42;11.95;;;;;;;2.50;80.54;96351.78;5070700;28;20062;-66
2021/04/19 01:24:14;;;;;;;23.50;12.10;;;;;;;2.57;79.54;96359.63;5069347;28;20448;-65
2021/04/19 01:26:40;;;;;;;26.20;11.50;;;;;;;2.57;79.83;96357.03;5070216;28;20179;-67
2021/04/19 01:29:06;;;;;;;20.65;10.73;;;;;;;2.53;79.78;96353.19;5070279;28;20069;-65
2021/04/19 01:31:32;;;;;;;26.70;14.02;;;;;;;2.53;80.23;96358.38;5070151;28;20043;-66
2021/04/19 01:33:57;;;;;;;24.05;12.20;;;;;;;2.51;80.35;96349.97;5069053;28;20088;-67
2021/04/19 01:36:26;;;;;;;25.65;13.18;;;;;;;2.40;81.05;96342.66;5070370;28;20044;-67
2021/04/19 01:38:53;;;;;;;28.58;13.30;;;;;;;2.60;79.85;96354.09;5068851;28;20106;-67
2021/04/19 01:41:18;;;;;;;24.70;12.18;;;;;;;2.42;80.27;96351.06;5070286;28;20036;-67
2021/04/19 01:43:44;;;;;;;27.48;12.43;;;;;;;2.52;79.66;96351.59;5052082;28;20073;-65
2021/04/19 01:46:10;;;;;;;25.45;12.95;;;;;;;2.41;80.53;96354.66;5069922;28;20044;-66
2021/04/19 01:48:35;;;;;;;22.42;11.27;;;;;;;2.42;80.42;96358.84;5070264;28;20048;-66
2021/04/19 01:51:01;;;;;;;21.33;11.38;;;;;;;2.32;80.63;96359.16;5069843;28;20047;-65
2021/04/19 01:53:29;;;;;;;25.30;12.52;;;;;;;2.32;80.56;96354.75;5068380;28;20036;-65
2021/04/19 01:55:56;;;;;;;26.60;12.57;;;;;;;2.17;81.28;96353.16;5072253;28;20404;-68
2021/04/19 01:58:24;;;;;;;24.70;11.98;;;;;;;2.45;80.78;96345.53;5073357;28;20040;-65
2021/04/19 02:00:53;;;;;;;24.77;11.45;;;;;;;2.33;81.47;96350.38;5073053;28;20060;-66
2021/04/19 02:03:38;;;;;;;28.33;13.45;;;;;;;2.16;81.49;96343.75;5073314;28;20032;-66
2021/04/19 02:06:09;;;;;;;25.20;12.90;;;;;;;2.16;81.79;96341.16;5073509;28;20098;-67
2021/04/19 02:08:46;;;;;;;24.05;11.85;;;;;;;2.20;81.67;96337.22;5073368;28;20048;-66
2021/04/19 02:11:26;;;;;;;24.08;12.10;;;;;;;2.22;81.67;96335.25;5073340;28;20091;-66
2021/04/19 02:14:00;;;;;;;25.55;11.88;;;;;;;2.29;81.61;96336.94;5073333;28;20055;-66
2021/04/19 02:16:37;;;;;;;22.65;11.45;;;;;;;2.34;81.06;96333.81;5073332;28;20040;-66
2021/04/19 02:19:10;;;;;;;25.63;12.47;;;;;;;2.25;81.41;96346.06;5073638;28;20044;-66
2021/04/19 02:21:41;;;;;;;21.63;12.25;;;;;;;2.32;81.14;96352.16;5074035;28;20122;-66
2021/04/19 02:24:11;;;;;;;24.67;12.45;;;;;;;2.32;81.82;96343.56;5073773;28;20068;-68
2021/04/19 02:26:45;;;;;;;26.08;12.07;;;;;;;2.24;81.90;96344.47;5073583;28;20126;-66
2021/04/19 02:29:14;;;;;;;23.58;12.32;;;;;;;2.24;82.57;96336.66;5074239;28;20059;-66
2021/04/19 02:31:43;;;;;;;23.42;12.48;;;;;;;2.22;82.45;96346.44;5073343;28;20039;-67
2021/04/19 02:34:13;;;;;;;24.77;11.98;;;;;;;2.32;82.31;96341.78;5073184;28;20048;-66
2021/04/19 02:36:43;;;;;;;23.95;12.95;;;;;;;2.43;82.19;96348.31;5073385;28;20067;-66
2021/04/19 02:39:08;;;;;;;23.42;12.25;;;;;;;2.54;81.54;96355.63;5072719;28;20056;-66
2021/04/19 02:41:36;;;;;;;22.58;11.63;;;;;;;2.57;81.51;96344.84;5072826;28;20045;-66
2021/04/19 02:44:04;;;;;;;22.80;12.27;;;;;;;2.55;80.83;96351.25;5073565;28;20394;-66
2021/04/19 02:46:30;;;;;;;24.13;11.70;;;;;;;2.56;80.82;96352.84;5073030;28;20454;-66
2021/04/19 02:48:57;;;;;;;24.40;11.82;;;;;;;2.65;80.23;96349.16;5073575;28;20274;-66
2021/04/19 02:51:24;;;;;;;21.55;10.77;;;;;;;2.80;79.53;96352.53;5072668;28;20075;-66
2021/04/19 02:53:51;;;;;;;22.92;11.45;;;;;;;2.76;79.46;96351.28;5074504;28;20047;-66
2021/04/19 02:56:20;;;;;;;22.85;12.38;;;;;;;2.58;80.48;96351.69;5072444;28;20036;-66
2021/04/19 02:58:48;;;;;;;26.33;12.40;;;;;;;2.75;79.92;96348.88;5072182;28;20063;-66
2021/04/19 03:01:21;;;;;;;25.60;12.15;;;;;;;2.62;79.65;96347.72;5071543;28;20404;-66
2021/04/19 03:03:49;;;;;;;23.33;11.80;;;;;;;2.46;80.49;96347.94;5072320;28;20067;-66
2021/04/19 03:06:17;;;;;;;25.30;12.55;;;;;;;2.44;80.83;96343.91;5071111;28;20048;-65
2021/04/19 03:08:48;;;;;;;24.95;12.10;;;;;;;2.42;81.13;96341.47;5072842;28;20052;-66
2021/04/19 03:11:18;;;;;;;22.73;11.60;;;;;;;2.50;80.79;96338.00;5071217;28;20072;-66
2021/04/19 03:13:46;;;;;;;24.85;12.20;;;;;;;2.44;81.02;96338.72;5072278;28;20037;-65
2021/04/19 03:16:12;;;;;;;26.42;12.52;;;;;;;2.50;80.44;96331.00;5072657;28;20111;-65
2021/04/19 03:18:40;;;;;;;27.23;13.80;;;;;;;2.37;81.26;96330.88;5072713;28;20542;-67
2021/04/19 03:21:14;;;;;;;25.35;12.30;;;;;;;2.35;81.33;96330.22;5071575;28;20124;-66
2021/04/19 03:23:44;;;;;;;26.63;12.75;;;;;;;2.49;80.52;96333.78;5072827;28;20483;-65
2021/04/19 03:26:11;;;;;;;25.17;12.13;;;;;;;2.52;80.80;96333.41;5054338;28;20380;-66
2021/04/19 03:28:38;;;;;;;26.85;14.13;;;;;;;2.39;81.32;96325.47;5072254;28;20416;-66
2021/04/19 03:31:07;;;;;;;26.35;12.98;;;;;;;2.59;80.44;96337.72;5072227;28;20045;-64
2021/04/19 03:33:37;;;;;;;24.98;12.63;;;;;;;2.51;80.37;96331.81;5072105;28;20036;-65
2021/04/19 03:36:07;;;;;;;25.42;12.82;;;;;;;2.52;81.09;96336.81;5071897;28;20048;-65
2021/04/19 03:38:33;;;;;;;26.23;12.73;;;;;;;2.60;79.85;96336.72;5054120;28;20048;-65
2021/04/19 03:41:01;;;;;;;25.88;12.85;;;;;;;2.54;80.03;96323.66;5072050;28;20037;-67
2021/04/19 03:43:29;;;;;;;24.52;12.07;;;;;;;2.61;80.24;96332.31;5072217;28;20036;-66
2021/04/19 03:45:57;;;;;;;;;;;;;;;2.55;80.29;96333.88;5072421;28;20055;-66
2021/04/19 03:48:24;;;;;;;25.98;11.50;;;;;;;2.56;80.18;96327.69;5071940;28;19962;-66
2021/04/19 03:50:57;;;;;;;27.23;12.53;;;;;;;2.47;80.48;96333.16;5073416;28;20037;-65
2021/04/19 03:53:28;;;;;;;24.98;12.73;;;;;;;2.26;81.59;96326.94;5072479;28;20036;-66
2021/04/19 03:55:56;;;;;;;23.48;12.70;;;;;;;2.27;81.38;96323.34;5072093;28;20036;-66
2021/04/19 03:58:23;;;;;;;24.75;12.15;;;;;;;2.54;80.27;96334.06;5071741;28;20054;-66
2021/04/19 04:00:52;;;;;;;25.23;12.38;;;;;;;2.63;79.69;96330.34;5071359;28;20045;-66
2021/04/19 04:03:22;;;;;;;23.45;11.98;;;;;;;2.34;80.77;96323.41;5071434;28;20044;-66
2021/04/19 04:05:49;;;;;;;24.77;12.38;;;;;;;2.47;80.28;96331.34;5071362;28;20117;-66
2021/04/19 04:08:16;;;;;;;26.30;12.25;;;;;;;2.24;80.68;96330.69;5071330;28;20040;-66
2021/04/19 04:10:44;;;;;;;26.83;13.60;;;;;;;2.09;81.59;96325.50;5071172;28;20507;-66
2021/04/19 04:13:10;;;;;;;22.77;12.50;;;;;;;1.96;82.47;96330.50;5071380;28;20048;-66
2021/04/19 04:15:47;;;;;;;26.15;12.63;;;;;;;2.14;81.96;96328.34;5071310;28;20482;-66
2021/04/19 04:18:12;;;;;;;25.92;12.70;;;;;;;2.06;81.96;96328.47;5070991;28;20036;-66
2021/04/19 04:20:38;;;;;;;27.65;13.43;;;;;;;2.12;81.96;96325.13;5071466;28;20045;-66
2021/04/19 04:23:06;;;;;;;29.65;13.60;;;;;;;2.13;82.37;96337.13;5071635;28;20045;-65
2021/04/19 04:25:32;;;;;;;;;;;;;;;2.21;82.00;96316.28;5071716;28;20059;-66
2021/04/19 04:28:00;;;;;;;23.63;12.32;;;;;;;2.36;81.73;96329.22;5071562;28;19916;-66
2021/04/19 04:30:27;;;;;;;24.35;12.63;;;;;;;2.39;81.52;96336.66;5071314;28;20044;-66
2021/04/19 04:32:52;;;;;;;26.00;12.77;;;;;;;2.41;81.21;96339.06;5071727;28;20032;-65
2021/04/19 04:35:18;;;;;;;25.00;13.13;;;;;;;2.69;80.48;96334.84;5071446;28;20090;-66
2021/04/19 04:37:43;;;;;;;25.25;12.60;;;;;;;2.49;80.63;96331.19;5070900;28;20136;-67
2021/04/19 04:40:13;;;;;;;26.77;14.13;;;;;;;2.58;80.68;96335.28;5070282;28;20044;-66
2021/04/19 04:42:41;;;;;;;26.25;12.52;;;;;;;2.80;79.42;96329.16;5071436;28;20060;-66
2021/04/19 04:45:08;;;;;;;;;;;;;;;2.78;79.23;96335.50;5072043;28;20492;-65
2021/04/19 04:47:41;;;;;;;23.67;12.82;;;;;;;2.89;78.38;96329.81;5108933;22;19920;-68
2021/04/19 04:50:13;;;;;;;22.88;11.15;;;;;;;2.66;79.74;96337.78;5092975;28;20070;-68
2021/04/19 04:52:48;;;;;;;25.88;12.27;;;;;;;2.70;79.51;96333.84;5094483;28;20036;-68
2021/04/19 04:55:18;;;;;;;26.17;12.52;;;;;;;2.42;80.23;96338.88;5075594;28;20036;-68
2021/04/19 04:57:45;;;;;;;24.63;12.80;;;;;;;2.41;80.94;96347.66;5093332;28;20040;-68
2021/04/19 05:00:14;;;;;;;27.87;13.97;;;;;;;2.44;81.14;96347.31;5092826;28;20043;-68
2021/04/19 05:02:43;;;;;;;25.38;12.43;;;;;;;2.59;80.44;96347.31;5094530;28;20044;-67
2021/04/19 05:05:09;;;;;;;;;;;;;;;2.50;80.40;96345.78;5097811;28;20044;-67
2021/04/19 05:07:36;;;;;;;21.27;10.82;;;;;;;2.43;80.60;96348.31;5079663;28;19942;-67
2021/04/19 05:10:06;;;;;;;26.77;12.70;;;;;;;2.43;81.08;96337.13;5095489;28;20032;-66
2021/04/19 05:12:32;;;;;;;24.05;11.43;;;;;;;2.56;80.80;96353.66;5093480;28;20040;-67
2021/04/19 05:14:59;;;;;;;21.00;11.85;;;;;;;2.75;79.58;96347.09;5093541;28;20100;-68
2021/04/19 05:17:25;;;;;;;27.25;12.05;;;;;;;2.76;79.32;96351.28;5093278;28;20100;-67
2021/04/19 05:19:52;;;;;;;27.25;12.90;;;;;;;2.59;80.25;96353.28;5093180;28;20118;-67
2021/04/19 05:22:18;;;;;;;28.30;12.38;;;;;;;2.78;79.79;96357.09;5075174;28;20040;-68
2021/04/19 05:24:43;;;;;;;24.95;12.50;;;;;;;2.91;79.42;96359.03;5093206;28;20066;-68
2021/04/19 05:27:11;;;;;;;24.52;11.85;;;;;;;2.85;79.26;96352.78;5093345;28;20048;-68
2021/04/19 05:29:37;;;;;;;23.58;12.23;;;;;;;2.92;79.27;96354.66;5094418;28;20040;-68
2021/04/19 05:32:04;;;;;;;24.02;12.60;;;;;;;2.84;79.44;96355.56;5078554;28;20040;-67
2021/04/19 05:34:31;;;;;;;25.23;13.23;;;;;;;2.90;79.70;96355.63;5097254;28;20048;-67
2021/04/19 05:36:58;;;;;;;25.50;12.05;;;;;;;2.90;80.25;96349.63;5097537;28;20040;-66
2021/04/19 05:39:24;;;;;;;24.77;12.68;;;;;;;3.12;78.86;96351.28;5097012;28;20079;-69
2021/04/19 05:41:53;;;;;;;21.98;11.98;;;;;;;3.13;79.12;96346.88;5097341;28;20044;-67
2021/04/19 05:44:19;;;;;;;25.60;13.82;;;;;;;3.17;79.17;96355.88;5078590;28;20123;-68
2021/04/19 05:46:45;;;;;;;25.88;14.05;;;;;;;3.34;78.51;96349.47;5079000;28;20126;-68
2021/04/19 05:49:11;;;;;;;26.42;13.57;;;;;;;3.69;78.10;96359.94;5097308;28;20036;-67
2021/04/19 05:51:41;;;;;;;25.65;13.10;;;;;;;3.68;76.90;96359.16;5097357;28;20036;-68
2021/04/19 05:54:09;;;;;;;25.48;13.15;;;;;;;3.55;77.06;96369.47;5096658;28;20112;-69
2021/04/19 05:56:49;;;;;;;28.08;12.77;;;;;;;3.52;77.02;96371.63;5097540;28;20043;-68
2021/04/19 05:59:19;;;;;;;25.65;12.48;;;;;;;3.62;76.66;96362.50;5078299;28;20135;-68
2021/04/19 06:01:48;;;;;;;24.20;12.80;;;;;;;3.69;76.84;96365.94;5101684;28;20094;-67
2021/04/19 06:04:22;;;;;;;27.20;13.60;;;;;;;3.78;76.44;96366.63;5106785;28;20128;-68
2021/04/19 06:06:59;;;;;;;22.73;12.45;;;;;;;4.01;75.60;96366.38;5104491;28;20044;-68
2021/04/19 06:09:31;;;;;;;25.48;13.30;;;;;;;3.95;75.77;96364.53;5106839;28;20058;-67
2021/04/19 06:12:03;;;;;;;24.55;12.82;;;;;;;4.08;74.90;96358.59;5085681;28;20070;-68
2021/04/19 06:14:33;;;;;;;25.75;11.95;;;;;;;4.42;73.53;96358.63;5098168;28;20093;-68
2021/04/19 06:17:01;;;;;;;26.30;12.40;;;;;;;4.22;74.87;96365.50;5096791;28;20062;-68
2021/04/19 06:19:28;;;;;;;23.98;12.90;;;;;;;4.26;74.59;96364.13;5096611;28;20066;-67
2021/04/19 06:21:55;;;;;;;22.98;12.13;;;;;;;4.24;75.16;96362.72;5096279;28;20040;-68
2021/04/19 06:24:23;;;;;;;26.27;12.77;;;;;;;4.24;74.28;96368.72;5096763;28;20058;-68
2021/04/19 06:26:49;;;;;;;24.40;12.80;;;;;;;4.34;74.32;96370.97;5096511;28;20036;-68
2021/04/19 06:29:16;;;;;;;25.35;13.68;;;;;;;4.34;74.70;96378.78;5096246;28;20495;-67
2021/04/19 06:31:47;;;;;;;25.35;12.93;;;;;;;4.45;73.88;96366.03;5095690;28;20495;-68
2021/04/19 06:34:15;;;;;;;22.40;11.95;;;;;;;4.65;73.35;96375.75;5095789;28;20040;-68
2021/04/19 06:36:42;;;;;;;25.73;12.07;;;;;;;4.89;72.15;96375.22;5096226;28;20055;-68
2021/04/19 06:39:13;;;;;;;22.08;12.10;;;;;;;4.98;71.94;96375.84;5095984;28;20526;-69
2021/04/19 06:41:39;;;;;;;25.25;12.68;;;;;;;5.05;72.05;96374.06;5095381;28;20572;-68
2021/04/19 06:44:05;;;;;;;22.10;12.50;;;;;;;5.03;71.81;96370.84;5077426;28;20088;-68
2021/04/19 06:46:33;;;;;;;22.95;12.13;;;;;;;5.45;70.27;96372.34;5095743;28;20040;-68
2021/04/19 06:48:59;;;;;;;26.08;12.02;;;;;;;5.42;70.24;96377.94;5095793;28;20044;-69
2021/04/19 06:51:25;;;;;;;24.10;12.27;;;;;;;5.77;69.59;96375.19;5095400;28;20074;-68
2021/04/19 06:53:51;;;;;;;23.55;11.93;;;;;;;5.93;69.24;96366.97;5096711;28;20499;-68
2021/04/19 06:56:21;;;;;;;24.70;12.57;;;;;;;5.70;68.97;96363.91;5096212;28;20518;-68
2021/04/19 06:58:50;;;;;;;27.98;13.68;;;;;;;5.49;70.30;96365.75;5096822;28;20111;-68
2021/04/19 07:01:19;;;;;;;27.38;13.82;;;;;;;5.54;70.06;96362.50;5096268;28;20123;-69
2021/04/19 07:03:48;;;;;;;24.70;13.18;;;;;;;5.66;70.11;96362.75;5096045;28;20035;-68
2021/04/19 07:06:15;;;;;;;24.10;11.73;;;;;;;5.96;68.47;96357.91;5095403;28;20101;-67
2021/04/19 07:08:46;;;;;;;30.20;13.50;;;;;;;5.70;69.03;96367.31;5095339;28;20487;-68
2021/04/19 07:11:13;;;;;;;24.83;12.73;;;;;;;6.23;68.02;96364.69;5094992;28;20044;-67
2021/04/19 07:13:41;;;;;;;24.88;12.15;;;;;;;6.22;67.58;96359.69;5095466;28;20158;-68
2021/04/19 07:16:07;;;;;;;25.50;12.95;;;;;;;6.46;65.95;96361.66;5095688;28;20137;-68
2021/04/19 07:18:34;;;;;;;23.63;12.77;;;;;;;6.54;66.74;96356.19;5095318;28;20079;-67
2021/04/19 07:21:00;;;;;;;23.10;12.73;;;;;;;6.74;65.90;96361.34;5094851;28;20036;-68
2021/04/19 07:23:26;;;;;;;23.73;12.63;;;;;;;6.99;65.51;96352.75;5077579;28;20032;-68
2021/04/19 07:25:52;;;;;;;25.88;12.25;;;;;;;6.88;65.72;96356.84;5096675;28;20058;-69
2021/04/19 07:28:20;;;;;;;23.58;12.68;;;;;;;6.92;64.78;96363.25;5099529;28;20104;-68
2021/04/19 07:30:58;;;;;;;22.23;11.93;;;;;;;7.26;63.73;96348.97;5098895;28;20047;-68
2021/04/19 07:33:26;;;;;;;31.42;14.07;;;;;;;7.31;64.13;96353.59;5078828;28;20036;-68
2021/04/19 07:35:52;;;;;;;27.63;13.10;;;;;;;7.10;64.84;96350.31;5095950;28;20075;-68
2021/04/19 07:38:32;;;;;;;23.20;12.45;;;;;;;7.20;64.89;96354.25;5096293;28;20044;-69
2021/04/19 07:40:58;;;;;;;25.20;13.05;;;;;;;7.21;64.15;96351.47;5095497;28;20032;-67
2021/04/19 07:43:24;;;;;;;25.77;12.60;;;;;;;7.54;63.17;96345.19;5096011;28;20036;-67
2021/04/19 07:46:09;;;;;;;20.92;11.30;;;;;;;7.65;61.97;96347.13;5095758;28;20414;-68
2021/04/19 07:48:41;;;;;;;23.95;13.40;;;;;;;7.76;61.67;96343.00;5095702;28;20506;-68
2021/04/19 07:51:28;;;;;;;20.35;11.60;;;;;;;8.03;61.26;96333.09;5095103;28;20380;-67
2021/04/19 07:54:18;;;;;;;24.63;11.98;;;;;;;7.95;61.07;96335.97;5094921;28;20116;-67
2021/04/19 07:56:45;;;;;;;25.25;13.52;;;;;;;8.15;60.77;96332.16;5076136;28;20036;-68
2021/04/19 07:59:24;;;;;;;22.17;12.05;;;;;;;8.71;59.25;96327.72;5094914;28;20525;-70
2021/04/19 08:01:59;;;;;;;22.30;11.65;;;;;;;8.84;58.88;96324.97;5095797;28;20040;-68
2021/04/19 08:04:25;;;;;;;20.17;11.88;;;;;;;9.00;58.05;96328.78;5095279;28;20040;-69
2021/04/19 08:06:51;;;;;;;19.90;11.70;;;;;;;8.50;59.72;96322.94;5081471;28;20058;-67
2021/04/19 08:09:22;;;;;;;22.13;11.63;;;;;;;8.74;58.47;96318.63;5080201;28;20048;-67
2021/04/19 08:11:50;;;;;;;20.98;11.65;;;;;;;8.80;59.20;96323.00;5102316;28;20063;-67
2021/04/19 08:14:16;;;;;;;24.42;11.80;;;;;;;9.17;57.30;96327.13;5099051;28;20028;-68
2021/04/19 08:16:41;;;;;;;21.38;11.05;;;;;;;9.53;55.99;96328.03;5095425;28;20070;-68
2021/04/19 08:19:08;;;;;;;20.25;11.25;;;;;;;10.08;54.87;96322.47;5094054;28;20047;-68
2021/04/19 08:21:34;;;;;;;22.92;11.68;;;;;;;10.20;54.36;96323.25;5094415;28;20044;-69
2021/04/19 08:24:11;;;;;;;20.13;10.77;;;;;;;10.59;53.96;96326.19;5093660;28;20047;-69
2021/04/19 08:26:51;;;;;;;19.85;11.30;;;;;;;10.44;53.63;96333.78;5075835;28;20062;-69
2021/04/19 08:29:37;;;;;;;21.42;12.32;;;;;;;10.17;54.55;96322.91;5094067;28;20122;-68
2021/04/19 08:32:04;;;;;;;21.20;11.50;;;;;;;10.53;53.58;96321.84;5095507;28;20391;-68
2021/04/19 08:34:32;;;;;;;23.63;12.05;;;;;;;10.76;52.99;96318.34;5096230;28;20040;-69
2021/04/19 08:37:00;;;;;;;21.35;11.63;;;;;;;10.76;53.20;96327.06;5094381;28;20654;-68
2021/04/19 08:39:26;;;;;;;;;;;;;;;11.09;52.21;96327.41;5095234;28;20132;-69
2021/04/19 08:41:54;;;;;;;21.00;12.60;;;;;;;10.54;53.62;96318.19;5099792;28;19951;-68
2021/04/19 08:44:19;;;;;;;21.80;12.68;;;;;;;10.81;53.68;96328.19;5090981;28;20046;-68
2021/04/19 08:46:46;;;;;;;20.35;11.73;;;;;;;10.60;53.41;96322.53;5111366;28;20056;-67
2021/04/19 08:49:12;;;;;;;21.80;12.32;;;;;;;10.62;54.50;96317.84;5105172;28;20050;-68
2021/04/19 08:51:39;;;;;;;19.48;11.75;;;;;;;10.66;54.01;96318.19;5099802;28;20040;-68
2021/04/19 08:54:05;;;;;;;21.80;11.90;;;;;;;10.45;53.43;96324.84;5099437;28;20041;-68
2021/04/19 08:56:32;;;;;;;22.08;11.65;;;;;;;10.40;53.72;96320.28;5096384;28;20098;-67
2021/04/19 08:58:59;;;;;;;24.20;13.30;;;;;;;10.29;53.72;96326.38;5078295;28;20463;-69
2021/04/19 09:01:27;;;;;;;22.58;13.20;;;;;;;10.47;53.91;96328.03;5095335;28;20075;-68
2021/04/19 09:04:01;;;;;;;21.83;12.40;;;;;;;10.81;52.83;96328.19;5078324;28;20071;-69
2021/04/19 09:06:40;;;;;;;23.50;12.40;;;;;;;10.77;52.94;96333.94;5099646;28;20079;-69
2021/04/19 09:09:06;;;;;;;21.90;12.40;;;;;;;10.96;51.75;96336.38;5080884;28;20110;-67
2021/04/19 09:11:32;;;;;;;21.10;11.75;;;;;;;11.55;51.24;96340.31;5081671;28;20040;-69
2021/04/19 09:14:06;;;;;;;21.08;12.13;;;;;;;11.77;50.51;96332.50;5080256;28;20112;-68
2021/04/19 09:16:37;;;;;;;23.17;12.90;;;;;;;11.70;48.99;96339.78;5080100;28;20044;-68
2021/04/19 09:19:04;;;;;;;21.13;11.18;;;;;;;12.08;50.03;96330.38;5079158;28;20047;-68
2021/04/19 09:21:41;;;;;;;19.67;11.57;;;;;;;11.98;49.06;96332.84;5097787;28;20063;-68
2021/04/19 09:24:09;;;;;;;22.95;12.18;;;;;;;11.73;48.20;96333.22;5097867;28;20040;-68
2021/04/19 09:26:49;;;;;;;20.73;11.55;;;;;;;12.07;48.06;96331.41;5097114;28;20048;-69
2021/04/19 09:29:44;;;;;;;22.15;12.30;;;;;;;11.75;48.26;96334.59;5079472;28;20063;-68
2021/04/19 09:32:19;;;;;;;19.98;11.52;;;;;;;12.40;46.85;96335.03;5078766;28;20040;-70
2021/04/19 09:34:45;;;;;;;24.98;13.05;;;;;;;12.16;47.52;96326.50;5097387;28;20100;-69
2021/04/19 09:37:14;;;;;;;25.25;12.45;;;;;;;12.20;48.10;96325.00;5096812;28;20043;-68
2021/04/19 09:39:49;;;;;;;21.92;11.27;;;;;;;12.31;46.32;96327.53;5096582;28;20166;-69
2021/04/19 09:42:17;;;;;;;21.20;11.48;;;;;;;12.43;46.15;96322.16;5096724;28;20038;-67
2021/04/19 09:45:03;;;;;;;20.55;10.15;;;;;;;12.45;45.20;96327.97;5097098;28;20122;-69
2021/04/19 09:47:48;;;;;;;18.50;10.00;;;;;;;12.52;45.69;96318.03;5096600;28;20478;-68
2021/04/19 09:50:15;;;;;;;16.80;9.50;;;;;;;13.26;43.82;96320.22;5096953;28;20434;-69
2021/04/19 09:52:46;;;;;;;21.83;11.65;;;;;;;12.82;44.29;96301.78;5096575;28;20522;-68
2021/04/19 09:55:13;;;;;;;19.58;10.30;;;;;;;12.67;44.24;96309.50;5097659;28;20076;-69
2021/04/19 09:57:39;;;;;;;16.83;9.00;;;;;;;12.68;43.08;96303.19;5096146;28;20086;-69
2021/04/19 10:00:06;;;;;;;18.98;9.90;;;;;;;12.44;43.01;96302.66;5096670;28;20261;-69
2021/04/19 10:02:34;;;;;;;17.03;9.13;;;;;;;12.81;42.08;96305.47;5077844;28;20055;-69
2021/04/19 10:05:00;;;;;;;17.10;8.98;;;;;;;12.88;41.47;96311.34;5078275;28;20062;-68
2021/04/19 10:07:28;;;;;;;16.00;8.23;;;;;;;12.95;41.62;96303.22;5096990;28;20063;-69
2021/04/19 10:09:56;;;;;;;17.55;8.68;;;;;;;13.24;40.80;96303.81;5082386;28;20039;-69
2021/04/19 10:12:22;;;;;;;15.88;8.30;;;;;;;13.25;41.27;96308.06;5101354;28;20545;-69
2021/04/19 10:14:48;;;;;;;13.77;7.45;;;;;;;12.87;40.06;96298.41;5099115;28;20165;-68
2021/04/19 10:17:17;;;;;;;15.32;7.70;;;;;;;13.28;39.84;96299.63;5097024;28;20040;-69
2021/04/19 10:19:43;;;;;;;16.00;7.88;;;;;;;13.54;39.67;96297.22;5097812;28;20051;-69
2021/04/19 10:22:11;;;;;;;14.65;7.72;;;;;;;13.52;39.39;96296.66;5096670;28;20100;-69
2021/04/19 10:24:49;;;;;;;18.00;8.97;;;;;;;13.72;39.18;96296.00;5097130;28;20048;-70
2021/04/19 10:27:26;;;;;;;15.35;8.13;;;;;;;13.72;39.01;96288.09;5077912;28;20284;-69
2021/04/19 10:29:52;;;;;;;15.45;8.27;;;;;;;13.63;38.53;96288.56;5077143;28;20508;-68
2021/04/19 10:32:27;;;;;;;13.68;7.82;;;;;;;13.69;38.65;96289.41;5096041;28;20044;-68
2021/04/19 10:34:52;;;;;;;15.02;8.05;;;;;;;14.18;37.92;96283.91;5095703;28;20051;-69
2021/04/19 10:37:18;;;;;;;14.50;7.72;;;;;;;14.28;37.56;96285.81;5096503;28;20036;-69
2021/04/19 10:39:45;;;;;;;15.30;7.82;;;;;;;14.69;36.85;96281.53;5095790;28;20056;-69
2021/04/19 10:42:11;;;;;;;14.57;7.93;;;;;;;14.29;37.45;96282.91;5077371;28;20040;-68
2021/04/19 10:44:40;;;;;;;15.70;7.68;;;;;;;14.55;37.55;96283.06;5095841;28;20044;-68
2021/04/19 10:47:07;;;;;;;14.55;7.40;;;;;;;15.00;35.87;96284.25;5095230;22;20048;-67
2021/04/19 10:49:34;;;;;;;16.67;8.77;;;;;;;15.04;35.20;96282.66;5092037;28;20467;-67
2021/04/19 10:52:03;;;;;;;15.35;7.97;;;;;;;14.37;37.11;96271.84;5092968;28;20051;-67
2021/04/19 10:54:31;;;;;;;15.05;8.55;;;;;;;14.22;37.39;96265.69;5092558;28;20217;-67
2021/04/19 10:56:58;;;;;;;16.77;8.93;;;;;;;14.53;37.57;96261.31;5073919;28;20345;-67
2021/04/19 10:59:24;;;;;;;16.23;9.13;;;;;;;14.02;37.87;96266.34;5091702;28;20135;-66
2021/04/19 11:02:02;;;;;;;16.02;9.60;;;;;;;13.91;38.48;96260.19;5092573;28;20128;-67
2021/04/19 11:04:31;;;;;;;17.30;9.52;;;;;;;14.36;37.53;96262.28;5092932;28;20036;-66
2021/04/19 11:07:26;;;;;;;15.07;8.93;;;;;;;14.34;38.03;96261.75;5092269;28;20044;-66
2021/04/19 11:10:21;;;;;;;16.85;8.98;;;;;;;14.21;37.92;96256.16;5089561;28;20147;-67
2021/04/19 11:12:54;;;;;;;16.00;8.82;;;;;;;14.52;37.66;96252.59;5092405;28;20089;-66
2021/04/19 11:15:27;;;;;;;19.08;11.15;;;;;;;13.83;41.67;96264.13;5092047;28;20085;-67
2021/04/19 11:17:53;;;;;;;21.15;12.02;;;;;;;13.21;44.79;96262.06;5092256;28;20036;-67
2021/04/19 11:20:21;;;;;;;22.27;13.38;;;;;;;12.67;46.29;96256.72;5092028;28;20043;-66
2021/04/19 11:22:49;;;;;;;20.77;11.85;;;;;;;12.54;47.04;96259.75;5092091;28;20070;-66
2021/04/19 11:25:17;;;;;;;;;;;;;;;12.30;47.21;96262.63;5074313;28;20054;-66
2021/04/19 11:27:43;;;;;;;21.00;11.60;;;;;;;12.46;47.00;96250.44;5092419;28;19920;-68
2021/04/19 11:30:26;;;;;;;20.52;12.00;;;;;;;12.79;45.95;96260.03;5092345;28;20514;-66
2021/04/19 11:33:04;;;;;;;22.73;12.13;;;;;;;12.55;46.15;96258.72;5091914;28;20036;-67
2021/04/19 11:35:34;;;;;;;;;;;;;;;12.25;46.92;96254.66;5092652;28;20419;-68